sensor_id;sensor_type;location;lat;lon;timestamp;pressure;altitude;pressure_sealevel;temperature;humidity
13033;BME280;6583;42.632;23.298;2023-01-28T00:00:37;71309.47;;;-146.40;88.41
13033;BME280;6583;42.632;23.298;2023-01-28T00:03:03;71311.50;;;-146.40;88.37
13033;BME280;6583;42.632;23.298;2023-01-28T00:05:32;71303.41;;;-146.40;88.74
13033;BME280;6583;42.632;23.298;2023-01-28T00:07:58;71313.53;;;-146.40;87.98
13033;BME280;6583;42.632;23.298;2023-01-28T00:10:25;71307.44;;;-146.40;88.03
13033;BME280;6583;42.632;23.298;2023-01-28T00:12:51;71307.44;;;-146.40;88.24
13033;BME280;6583;42.632;23.298;2023-01-28T00:15:18;71317.56;;;-146.40;88.22
13033;BME280;6583;42.632;23.298;2023-01-28T00:17:45;71321.63;;;-146.40;88.49
13033;BME280;6583;42.632;23.298;2023-01-28T00:20:12;71321.63;;;-146.40;88.13
13033;BME280;6583;42.632;23.298;2023-01-28T00:22:40;71317.56;;;-146.40;88.05
13033;BME280;6583;42.632;23.298;2023-01-28T00:25:07;71321.63;;;-146.40;88.10
13033;BME280;6583;42.632;23.298;2023-01-28T00:27:33;71329.72;;;-146.40;87.61
13033;BME280;6583;42.632;23.298;2023-01-28T00:30:00;71335.78;;;-146.40;87.98
13033;BME280;6583;42.632;23.298;2023-01-28T00:32:26;71335.78;;;-146.40;87.98
13033;BME280;6583;42.632;23.298;2023-01-28T00:34:54;71331.72;;;-146.40;88.12
13033;BME280;6583;42.632;23.298;2023-01-28T00:37:20;71343.88;;;-146.40;87.89
13033;BME280;6583;42.632;23.298;2023-01-28T00:39:48;71347.91;;;-146.40;87.39
13033;BME280;6583;42.632;23.298;2023-01-28T00:42:15;71351.97;;;-146.40;87.88
13033;BME280;6583;42.632;23.298;2023-01-28T00:44:42;71358.03;;;-146.40;88.09
13033;BME280;6583;42.632;23.298;2023-01-28T00:47:08;71343.88;;;-146.40;87.94
13033;BME280;6583;42.632;23.298;2023-01-28T00:49:35;71339.81;;;-146.40;88.39
13033;BME280;6583;42.632;23.298;2023-01-28T00:52:02;71349.94;;;-146.40;87.91
13033;BME280;6583;42.632;23.298;2023-01-28T00:54:29;71345.91;;;-146.40;87.55
13033;BME280;6583;42.632;23.298;2023-01-28T00:56:57;71339.81;;;-146.40;87.41
13033;BME280;6583;42.632;23.298;2023-01-28T00:59:24;71343.88;;;-146.40;87.48
13033;BME280;6583;42.632;23.298;2023-01-28T01:01:52;71343.88;;;-146.40;87.37
13033;BME280;6583;42.632;23.298;2023-01-28T01:04:18;71349.94;;;-146.40;87.01
13033;BME280;6583;42.632;23.298;2023-01-28T01:06:51;71368.16;;;-146.40;87.32
13033;BME280;6583;42.632;23.298;2023-01-28T01:09:17;71364.13;;;-146.40;87.70
13033;BME280;6583;42.632;23.298;2023-01-28T01:11:44;71354.00;;;-146.40;87.17
13033;BME280;6583;42.632;23.298;2023-01-28T01:14:12;71358.03;;;-146.40;87.43
13033;BME280;6583;42.632;23.298;2023-01-28T01:16:39;71368.16;;;-146.40;87.82
13033;BME280;6583;42.632;23.298;2023-01-28T01:19:05;71362.09;;;-146.40;88.28
13033;BME280;6583;42.632;23.298;2023-01-28T01:21:33;71356.00;;;-146.40;87.78
13033;BME280;6583;42.632;23.298;2023-01-28T01:24:00;71366.13;;;-146.40;87.88
13033;BME280;6583;42.632;23.298;2023-01-28T01:26:26;71374.22;;;-146.40;88.01
13033;BME280;6583;42.632;23.298;2023-01-28T01:28:54;71374.22;;;-146.40;87.76
13033;BME280;6583;42.632;23.298;2023-01-28T01:31:22;71376.25;;;-146.40;87.86
13033;BME280;6583;42.632;23.298;2023-01-28T01:33:50;71372.22;;;-146.40;87.70
13033;BME280;6583;42.632;23.298;2023-01-28T01:36:17;71364.13;;;-146.40;88.21
13033;BME280;6583;42.632;23.298;2023-01-28T01:38:46;71358.03;;;-146.40;88.56
13033;BME280;6583;42.632;23.298;2023-01-28T01:41:22;71360.06;;;-146.40;87.91
13033;BME280;6583;42.632;23.298;2023-01-28T01:43:51;71364.13;;;-146.40;87.53
13033;BME280;6583;42.632;23.298;2023-01-28T01:46:22;71356.00;;;-146.40;87.91
13033;BME280;6583;42.632;23.298;2023-01-28T01:48:52;71368.16;;;-146.40;87.77
13033;BME280;6583;42.632;23.298;2023-01-28T01:51:24;71372.22;;;-146.40;88.08
13033;BME280;6583;42.632;23.298;2023-01-28T01:53:54;71372.22;;;-146.40;87.80
13033;BME280;6583;42.632;23.298;2023-01-28T01:56:27;71378.28;;;-146.40;87.60
13033;BME280;6583;42.632;23.298;2023-01-28T01:58:56;71372.22;;;-146.40;88.30
13033;BME280;6583;42.632;23.298;2023-01-28T02:01:27;71368.16;;;-146.40;88.46
13033;BME280;6583;42.632;23.298;2023-01-28T02:03:58;71376.25;;;-146.40;88.25
13033;BME280;6583;42.632;23.298;2023-01-28T02:06:27;71374.22;;;-146.40;88.15
13033;BME280;6583;42.632;23.298;2023-01-28T02:08:54;71368.16;;;-146.40;88.50
13033;BME280;6583;42.632;23.298;2023-01-28T02:11:23;71370.19;;;-146.40;88.06
13033;BME280;6583;42.632;23.298;2023-01-28T02:13:53;71382.31;;;-146.40;87.40
13033;BME280;6583;42.632;23.298;2023-01-28T02:16:20;71380.31;;;-146.40;87.83
13033;BME280;6583;42.632;23.298;2023-01-28T02:18:49;71378.28;;;-146.40;87.80
13033;BME280;6583;42.632;23.298;2023-01-28T02:24:42;71388.41;;;-146.40;87.16
13033;BME280;6583;42.632;23.298;2023-01-28T02:27:26;71388.41;;;-146.40;87.22
13033;BME280;6583;42.632;23.298;2023-01-28T02:29:58;71386.38;;;-146.40;87.53
13033;BME280;6583;42.632;23.298;2023-01-28T02:32:32;71384.34;;;-146.40;87.73
13033;BME280;6583;42.632;23.298;2023-01-28T02:35:06;71384.34;;;-146.40;88.10
13033;BME280;6583;42.632;23.298;2023-01-28T02:37:37;71376.25;;;-146.40;87.78
13033;BME280;6583;42.632;23.298;2023-01-28T02:40:10;71386.38;;;-146.40;87.69
13033;BME280;6583;42.632;23.298;2023-01-28T02:42:39;71374.22;;;-146.40;87.68
13033;BME280;6583;42.632;23.298;2023-01-28T02:45:18;71372.22;;;-146.40;87.58
13033;BME280;6583;42.632;23.298;2023-01-28T02:47:46;71376.25;;;-146.40;87.07
13033;BME280;6583;42.632;23.298;2023-01-28T02:50:25;71376.25;;;-146.40;86.41
13033;BME280;6583;42.632;23.298;2023-01-28T02:53:08;71374.22;;;-146.40;86.97
13033;BME280;6583;42.632;23.298;2023-01-28T02:56:01;71388.41;;;-146.40;86.84
13033;BME280;6583;42.632;23.298;2023-01-28T02:58:34;71384.34;;;-146.40;87.14
13033;BME280;6583;42.632;23.298;2023-01-28T03:01:09;71376.25;;;-146.40;87.25
13033;BME280;6583;42.632;23.298;2023-01-28T03:03:44;71376.25;;;-146.40;87.22
13033;BME280;6583;42.632;23.298;2023-01-28T03:06:18;71384.34;;;-146.40;87.39
13033;BME280;6583;42.632;23.298;2023-01-28T03:08:50;71386.38;;;-146.40;86.72
13033;BME280;6583;42.632;23.298;2023-01-28T03:11:39;71378.28;;;-146.40;86.59
13033;BME280;6583;42.632;23.298;2023-01-28T03:14:25;71378.28;;;-146.40;87.07
13033;BME280;6583;42.632;23.298;2023-01-28T03:17:15;71372.22;;;-146.40;87.16
13033;BME280;6583;42.632;23.298;2023-01-28T03:20:00;71368.16;;;-146.40;86.90
13033;BME280;6583;42.632;23.298;2023-01-28T03:22:45;71382.31;;;-146.40;86.51
13033;BME280;6583;42.632;23.298;2023-01-28T03:25:33;71376.25;;;-146.40;86.45
13033;BME280;6583;42.632;23.298;2023-01-28T03:28:19;71380.31;;;-146.40;86.46
13033;BME280;6583;42.632;23.298;2023-01-28T03:31:05;71390.41;;;-146.40;86.59
13033;BME280;6583;42.632;23.298;2023-01-28T03:33:54;71396.50;;;-146.40;86.54
13033;BME280;6583;42.632;23.298;2023-01-28T03:36:39;71406.59;;;-146.40;86.07
13033;BME280;6583;42.632;23.298;2023-01-28T03:39:14;71412.69;;;-146.40;86.10
13033;BME280;6583;42.632;23.298;2023-01-28T03:41:41;71408.63;;;-146.40;86.84
13033;BME280;6583;42.632;23.298;2023-01-28T03:44:08;71404.59;;;-146.40;86.66
13033;BME280;6583;42.632;23.298;2023-01-28T03:46:52;71406.59;;;-146.40;86.39
13033;BME280;6583;42.632;23.298;2023-01-28T03:49:20;71396.50;;;-146.40;86.53
13033;BME280;6583;42.632;23.298;2023-01-28T03:51:46;71402.56;;;-146.40;87.01
13033;BME280;6583;42.632;23.298;2023-01-28T03:54:13;71406.59;;;-146.40;86.41
13033;BME280;6583;42.632;23.298;2023-01-28T03:56:40;71424.81;;;-146.40;85.79
13033;BME280;6583;42.632;23.298;2023-01-28T03:59:06;71416.72;;;-146.40;86.48
13033;BME280;6583;42.632;23.298;2023-01-28T04:01:33;71428.88;;;-146.40;86.48
13033;BME280;6583;42.632;23.298;2023-01-28T04:04:00;71428.88;;;-146.40;86.45
13033;BME280;6583;42.632;23.298;2023-01-28T04:06:28;71432.91;;;-146.40;86.01
13033;BME280;6583;42.632;23.298;2023-01-28T04:08:55;71445.06;;;-146.40;86.57
13033;BME280;6583;42.632;23.298;2023-01-28T04:11:24;71428.88;;;-146.40;86.50
13033;BME280;6583;42.632;23.298;2023-01-28T04:13:51;71436.97;;;-146.40;85.80
13033;BME280;6583;42.632;23.298;2023-01-28T04:16:18;71445.06;;;-146.40;85.99
13033;BME280;6583;42.632;23.298;2023-01-28T04:18:45;71441.00;;;-146.40;86.46
13033;BME280;6583;42.632;23.298;2023-01-28T04:21:12;71449.09;;;-146.40;85.90
13033;BME280;6583;42.632;23.298;2023-01-28T04:23:40;71447.09;;;-146.40;86.20
13033;BME280;6583;42.632;23.298;2023-01-28T04:26:07;71471.38;;;-146.40;85.98
13033;BME280;6583;42.632;23.298;2023-01-28T04:28:34;71465.28;;;-146.40;85.89
13033;BME280;6583;42.632;23.298;2023-01-28T04:31:00;71475.41;;;-146.40;86.48
13033;BME280;6583;42.632;23.298;2023-01-28T04:33:27;71465.28;;;-146.40;86.73
13033;BME280;6583;42.632;23.298;2023-01-28T04:35:54;71457.19;;;-146.40;86.57
13033;BME280;6583;42.632;23.298;2023-01-28T04:38:20;71449.09;;;-146.40;87.15
13033;BME280;6583;42.632;23.298;2023-01-28T04:40:52;71457.19;;;-146.40;86.03
13033;BME280;6583;42.632;23.298;2023-01-28T04:43:19;71453.16;;;-146.40;85.28
13033;BME280;6583;42.632;23.298;2023-01-28T04:45:46;71449.09;;;-146.40;85.87
13033;BME280;6583;42.632;23.298;2023-01-28T04:48:13;71457.19;;;-146.40;85.08
13033;BME280;6583;42.632;23.298;2023-01-28T04:50:40;71457.19;;;-146.40;84.73
13033;BME280;6583;42.632;23.298;2023-01-28T04:53:07;71449.09;;;-146.40;85.19
13033;BME280;6583;42.632;23.298;2023-01-28T04:55:34;71453.16;;;-146.40;85.13
13033;BME280;6583;42.632;23.298;2023-01-28T04:58:03;71469.34;;;-146.40;84.80
13033;BME280;6583;42.632;23.298;2023-01-28T05:00:29;71467.31;;;-146.40;83.94
13033;BME280;6583;42.632;23.298;2023-01-28T05:02:56;71453.16;;;-146.40;84.22
13033;BME280;6583;42.632;23.298;2023-01-28T05:05:22;71465.28;;;-146.40;84.91
13033;BME280;6583;42.632;23.298;2023-01-28T05:07:50;71473.41;;;-146.40;84.92
13033;BME280;6583;42.632;23.298;2023-01-28T05:10:17;71465.28;;;-146.40;85.33
13033;BME280;6583;42.632;23.298;2023-01-28T05:12:45;71481.50;;;-146.40;84.49
13033;BME280;6583;42.632;23.298;2023-01-28T05:15:14;71485.53;;;-146.40;84.75
13033;BME280;6583;42.632;23.298;2023-01-28T05:17:41;71495.66;;;-146.40;84.70
13033;BME280;6583;42.632;23.298;2023-01-28T05:20:09;71483.50;;;-146.40;84.62
13033;BME280;6583;42.632;23.298;2023-01-28T05:22:37;71481.50;;;-146.40;85.29
13033;BME280;6583;42.632;23.298;2023-01-28T05:25:04;71501.72;;;-146.40;85.32
13033;BME280;6583;42.632;23.298;2023-01-28T05:27:32;71509.81;;;-146.40;84.69
13033;BME280;6583;42.632;23.298;2023-01-28T05:29:59;71497.69;;;-146.40;85.35
13033;BME280;6583;42.632;23.298;2023-01-28T05:32:27;71505.78;;;-146.40;85.04
13033;BME280;6583;42.632;23.298;2023-01-28T05:34:53;71501.72;;;-146.40;85.44
13033;BME280;6583;42.632;23.298;2023-01-28T05:37:20;71491.59;;;-146.40;86.42
13033;BME280;6583;42.632;23.298;2023-01-28T05:39:47;71501.72;;;-146.40;85.26
13033;BME280;6583;42.632;23.298;2023-01-28T05:42:13;71497.69;;;-146.40;85.82
13033;BME280;6583;42.632;23.298;2023-01-28T05:44:41;71501.72;;;-146.40;85.92
13033;BME280;6583;42.632;23.298;2023-01-28T05:47:08;71493.63;;;-146.40;85.64
13033;BME280;6583;42.632;23.298;2023-01-28T05:49:36;71497.69;;;-146.40;85.77
13033;BME280;6583;42.632;23.298;2023-01-28T05:52:03;71491.59;;;-146.40;85.77
13033;BME280;6583;42.632;23.298;2023-01-28T05:54:29;71485.53;;;-146.40;85.55
13033;BME280;6583;42.632;23.298;2023-01-28T05:56:56;71491.59;;;-146.40;84.89
13033;BME280;6583;42.632;23.298;2023-01-28T05:59:22;71491.59;;;-146.40;85.47
13033;BME280;6583;42.632;23.298;2023-01-28T06:01:49;71489.59;;;-146.40;84.96
13033;BME280;6583;42.632;23.298;2023-01-28T06:04:16;71479.47;;;-146.40;85.63
13033;BME280;6583;42.632;23.298;2023-01-28T06:06:44;71483.50;;;-146.40;85.12
13033;BME280;6583;42.632;23.298;2023-01-28T06:09:11;71485.53;;;-146.40;85.05
13033;BME280;6583;42.632;23.298;2023-01-28T06:11:37;71489.59;;;-146.40;84.29
13033;BME280;6583;42.632;23.298;2023-01-28T06:14:04;71493.63;;;-146.40;84.53
13033;BME280;6583;42.632;23.298;2023-01-28T06:16:31;71493.63;;;-146.40;84.72
13033;BME280;6583;42.632;23.298;2023-01-28T06:18:57;71501.72;;;-146.40;84.25
13033;BME280;6583;42.632;23.298;2023-01-28T06:21:24;71501.72;;;-146.40;84.95
13033;BME280;6583;42.632;23.298;2023-01-28T06:23:53;71517.91;;;-146.40;84.68
13033;BME280;6583;42.632;23.298;2023-01-28T06:26:20;71517.91;;;-146.40;84.48
13033;BME280;6583;42.632;23.298;2023-01-28T06:28:46;71511.84;;;-146.40;85.34
13033;BME280;6583;42.632;23.298;2023-01-28T06:31:13;71526.00;;;-146.40;84.94
13033;BME280;6583;42.632;23.298;2023-01-28T06:33:40;71536.13;;;-146.40;85.38
13033;BME280;6583;42.632;23.298;2023-01-28T06:36:07;71528.03;;;-146.40;85.56
13033;BME280;6583;42.632;23.298;2023-01-28T06:38:34;71534.09;;;-146.40;84.85
13033;BME280;6583;42.632;23.298;2023-01-28T06:41:02;71534.09;;;-146.40;85.52
13033;BME280;6583;42.632;23.298;2023-01-28T06:43:29;71542.19;;;-146.40;85.03
13033;BME280;6583;42.632;23.298;2023-01-28T06:45:55;71538.16;;;-146.40;85.58
13033;BME280;6583;42.632;23.298;2023-01-28T06:48:22;71546.25;;;-146.40;85.40
13033;BME280;6583;42.632;23.298;2023-01-28T06:50:50;71542.19;;;-146.40;85.08
13033;BME280;6583;42.632;23.298;2023-01-28T06:53:18;71538.16;;;-146.40;85.52
13033;BME280;6583;42.632;23.298;2023-01-28T06:55:45;71548.28;;;-146.40;84.98
13033;BME280;6583;42.632;23.298;2023-01-28T06:58:13;71552.31;;;-146.40;85.29
13033;BME280;6583;42.632;23.298;2023-01-28T07:00:39;71558.38;;;-146.40;84.88
13033;BME280;6583;42.632;23.298;2023-01-28T07:03:06;71550.28;;;-146.40;85.34
13033;BME280;6583;42.632;23.298;2023-01-28T07:05:33;71546.25;;;-146.40;85.71
13033;BME280;6583;42.632;23.298;2023-01-28T07:07:59;71552.31;;;-146.40;85.79
13033;BME280;6583;42.632;23.298;2023-01-28T07:10:26;71556.38;;;-146.40;85.85
13033;BME280;6583;42.632;23.298;2023-01-28T07:12:53;71558.38;;;-146.40;85.44
13033;BME280;6583;42.632;23.298;2023-01-28T07:15:21;71564.47;;;-146.40;85.37
13033;BME280;6583;42.632;23.298;2023-01-28T07:17:47;71570.53;;;-146.40;85.26
13033;BME280;6583;42.632;23.298;2023-01-28T07:20:15;71570.53;;;-146.40;85.48
13033;BME280;6583;42.632;23.298;2023-01-28T07:22:42;71566.50;;;-146.40;85.68
13033;BME280;6583;42.632;23.298;2023-01-28T07:25:11;71574.59;;;-146.40;85.63
13033;BME280;6583;42.632;23.298;2023-01-28T07:27:38;71576.59;;;-146.40;85.18
13033;BME280;6583;42.632;23.298;2023-01-28T07:30:05;71570.53;;;-146.40;85.44
13033;BME280;6583;42.632;23.298;2023-01-28T07:32:34;71564.47;;;-146.40;86.14
13033;BME280;6583;42.632;23.298;2023-01-28T07:35:00;71562.44;;;-146.40;85.50
13033;BME280;6583;42.632;23.298;2023-01-28T07:37:27;71566.50;;;-146.40;85.07
13033;BME280;6583;42.632;23.298;2023-01-28T07:39:53;71560.41;;;-146.40;84.62
13033;BME280;6583;42.632;23.298;2023-01-28T07:42:20;71550.28;;;-146.40;84.89
13033;BME280;6583;42.632;23.298;2023-01-28T07:44:47;71550.28;;;-146.40;84.99
13033;BME280;6583;42.632;23.298;2023-01-28T07:47:14;71554.34;;;-146.40;84.37
13033;BME280;6583;42.632;23.298;2023-01-28T07:49:42;71550.28;;;-146.40;84.22
13033;BME280;6583;42.632;23.298;2023-01-28T07:52:08;71546.25;;;-146.40;84.27
13033;BME280;6583;42.632;23.298;2023-01-28T07:54:36;71544.22;;;-146.40;83.86
13033;BME280;6583;42.632;23.298;2023-01-28T07:57:06;71550.28;;;-146.40;84.24
13033;BME280;6583;42.632;23.298;2023-01-28T07:59:34;71542.19;;;-146.40;83.85
13033;BME280;6583;42.632;23.298;2023-01-28T08:02:01;71542.19;;;-146.40;83.89
13033;BME280;6583;42.632;23.298;2023-01-28T08:04:27;71566.50;;;-146.40;82.67
13033;BME280;6583;42.632;23.298;2023-01-28T08:06:56;71558.38;;;-146.40;83.43
13033;BME280;6583;42.632;23.298;2023-01-28T08:09:22;71560.41;;;-146.40;83.04
13033;BME280;6583;42.632;23.298;2023-01-28T08:11:49;71552.31;;;-146.40;82.75
13033;BME280;6583;42.632;23.298;2023-01-28T08:14:16;71570.53;;;-146.40;82.39
13033;BME280;6583;42.632;23.298;2023-01-28T08:16:43;71550.28;;;-146.40;82.95
13033;BME280;6583;42.632;23.298;2023-01-28T08:19:10;71568.50;;;-146.40;82.21
13033;BME280;6583;42.632;23.298;2023-01-28T08:21:37;71586.72;;;-146.40;82.36
13033;BME280;6583;42.632;23.298;2023-01-28T08:24:05;71586.72;;;-146.40;83.15
13033;BME280;6583;42.632;23.298;2023-01-28T08:26:32;71574.59;;;-146.40;83.83
13033;BME280;6583;42.632;23.298;2023-01-28T08:28:58;71574.59;;;-146.40;83.52
13033;BME280;6583;42.632;23.298;2023-01-28T08:31:26;71590.78;;;-146.40;83.04
13033;BME280;6583;42.632;23.298;2023-01-28T08:33:54;71590.78;;;-146.40;83.19
13033;BME280;6583;42.632;23.298;2023-01-28T08:36:21;71582.69;;;-146.40;83.64
13033;BME280;6583;42.632;23.298;2023-01-28T08:38:50;71588.75;;;-146.40;83.43
13033;BME280;6583;42.632;23.298;2023-01-28T08:41:19;71568.50;;;-146.40;83.56
13033;BME280;6583;42.632;23.298;2023-01-28T08:43:46;71586.72;;;-146.40;82.50
13033;BME280;6583;42.632;23.298;2023-01-28T08:46:13;71566.50;;;-146.40;82.42
13033;BME280;6583;42.632;23.298;2023-01-28T08:48:40;71566.50;;;-146.40;83.01
13033;BME280;6583;42.632;23.298;2023-01-28T08:51:07;71566.50;;;-146.40;82.73
13033;BME280;6583;42.632;23.298;2023-01-28T08:53:33;71542.19;;;-146.40;83.28
13033;BME280;6583;42.632;23.298;2023-01-28T08:56:00;71546.25;;;-146.40;82.37
13033;BME280;6583;42.632;23.298;2023-01-28T08:58:28;71556.38;;;-146.40;81.50
13033;BME280;6583;42.632;23.298;2023-01-28T09:00:55;71542.19;;;-146.40;81.53
13033;BME280;6583;42.632;23.298;2023-01-28T09:03:22;71538.16;;;-146.40;81.32
13033;BME280;6583;42.632;23.298;2023-01-28T09:05:48;71524.00;;;-146.40;81.84
13033;BME280;6583;42.632;23.298;2023-01-28T09:08:15;71521.97;;;-146.40;81.74
13033;BME280;6583;42.632;23.298;2023-01-28T09:10:42;71515.91;;;-146.40;81.14
13033;BME280;6583;42.632;23.298;2023-01-28T09:13:10;71532.09;;;-146.40;81.16
13033;BME280;6583;42.632;23.298;2023-01-28T09:15:39;71519.94;;;-146.40;81.55
13033;BME280;6583;42.632;23.298;2023-01-28T09:18:05;71534.09;;;-146.40;81.43
13033;BME280;6583;42.632;23.298;2023-01-28T09:20:32;71534.09;;;-146.40;81.14
13033;BME280;6583;42.632;23.298;2023-01-28T09:23:01;71538.16;;;-146.40;82.21
13033;BME280;6583;42.632;23.298;2023-01-28T09:25:28;71542.19;;;-146.40;82.29
13033;BME280;6583;42.632;23.298;2023-01-28T09:27:56;71540.19;;;-146.40;81.89
13033;BME280;6583;42.632;23.298;2023-01-28T09:30:23;71526.00;;;-146.40;82.43
13033;BME280;6583;42.632;23.298;2023-01-28T09:32:52;71511.84;;;-146.40;82.59
13033;BME280;6583;42.632;23.298;2023-01-28T09:35:19;71536.13;;;-146.40;81.81
13033;BME280;6583;42.632;23.298;2023-01-28T09:37:46;71534.09;;;-146.40;82.83
13033;BME280;6583;42.632;23.298;2023-01-28T09:40:16;71519.94;;;-146.40;82.75
13033;BME280;6583;42.632;23.298;2023-01-28T09:42:55;71517.91;;;-146.40;82.82
13033;BME280;6583;42.632;23.298;2023-01-28T09:45:30;71524.00;;;-146.40;82.62
13033;BME280;6583;42.632;23.298;2023-01-28T09:48:02;71517.91;;;-146.40;82.72
13033;BME280;6583;42.632;23.298;2023-01-28T09:50:31;71507.78;;;-146.40;82.86
13033;BME280;6583;42.632;23.298;2023-01-28T09:53:01;71497.69;;;-146.40;82.72
13033;BME280;6583;42.632;23.298;2023-01-28T09:55:34;71509.81;;;-146.40;81.91
13033;BME280;6583;42.632;23.298;2023-01-28T09:58:05;71503.75;;;-146.40;82.30
13033;BME280;6583;42.632;23.298;2023-01-28T10:00:36;71505.78;;;-146.40;82.07
13033;BME280;6583;42.632;23.298;2023-01-28T10:06:16;71550.28;;;-146.40;82.60
13033;BME280;6583;42.632;23.298;2023-01-28T10:09:02;71560.41;;;-146.40;83.62
13033;BME280;6583;42.632;23.298;2023-01-28T10:11:42;71552.31;;;-146.40;84.80
13033;BME280;6583;42.632;23.298;2023-01-28T10:14:20;71552.31;;;-146.40;84.66
13033;BME280;6583;42.632;23.298;2023-01-28T10:16:54;71554.34;;;-146.40;84.44
13033;BME280;6583;42.632;23.298;2023-01-28T10:19:26;71552.31;;;-146.40;84.82
13033;BME280;6583;42.632;23.298;2023-01-28T10:21:58;71532.09;;;-146.40;85.39
13033;BME280;6583;42.632;23.298;2023-01-28T10:24:30;71532.09;;;-146.40;85.07
13033;BME280;6583;42.632;23.298;2023-01-28T10:26:59;71521.97;;;-146.40;85.06
13033;BME280;6583;42.632;23.298;2023-01-28T10:29:28;71521.97;;;-146.40;83.55
13033;BME280;6583;42.632;23.298;2023-01-28T10:32:00;71528.03;;;-146.40;82.84
13033;BME280;6583;42.632;23.298;2023-01-28T10:34:32;71524.00;;;-146.40;84.00
13033;BME280;6583;42.632;23.298;2023-01-28T10:36:59;71526.00;;;-146.40;84.24
13033;BME280;6583;42.632;23.298;2023-01-28T10:39:27;71513.88;;;-146.40;84.98
13033;BME280;6583;42.632;23.298;2023-01-28T10:41:55;71505.78;;;-146.40;84.66
13033;BME280;6583;42.632;23.298;2023-01-28T10:44:29;71501.72;;;-146.40;83.85
13033;BME280;6583;42.632;23.298;2023-01-28T10:47:01;71493.63;;;-146.40;83.60
13033;BME280;6583;42.632;23.298;2023-01-28T10:49:31;71487.56;;;-146.40;83.56
13033;BME280;6583;42.632;23.298;2023-01-28T10:52:10;71493.63;;;-146.40;83.37
13033;BME280;6583;42.632;23.298;2023-01-28T10:54:37;71487.56;;;-146.40;83.18
13033;BME280;6583;42.632;23.298;2023-01-28T10:57:08;71489.59;;;-146.40;82.65
13033;BME280;6583;42.632;23.298;2023-01-28T10:59:37;71485.53;;;-146.40;83.23
13033;BME280;6583;42.632;23.298;2023-01-28T11:02:21;71497.69;;;-146.40;83.13
13033;BME280;6583;42.632;23.298;2023-01-28T11:05:01;71493.63;;;-146.40;83.89
13033;BME280;6583;42.632;23.298;2023-01-28T11:07:28;71501.72;;;-146.40;83.68
13033;BME280;6583;42.632;23.298;2023-01-28T11:09:55;71503.75;;;-146.40;83.61
13033;BME280;6583;42.632;23.298;2023-01-28T11:12:23;71485.53;;;-146.40;83.80
13033;BME280;6583;42.632;23.298;2023-01-28T11:14:52;71465.28;;;-146.40;83.13
13033;BME280;6583;42.632;23.298;2023-01-28T11:17:21;71449.09;;;-146.40;82.64
13033;BME280;6583;42.632;23.298;2023-01-28T11:19:49;71445.06;;;-146.40;82.60
13033;BME280;6583;42.632;23.298;2023-01-28T11:22:22;71436.97;;;-146.40;81.83
13033;BME280;6583;42.632;23.298;2023-01-28T11:24:51;71432.91;;;-146.40;81.48
13033;BME280;6583;42.632;23.298;2023-01-28T11:27:22;71443.03;;;-146.40;80.46
13033;BME280;6583;42.632;23.298;2023-01-28T11:29:51;71428.88;;;-146.40;80.35
13033;BME280;6583;42.632;23.298;2023-01-28T11:32:24;71432.91;;;-146.40;79.99
13033;BME280;6583;42.632;23.298;2023-01-28T11:34:52;71439.00;;;-146.40;80.45
13033;BME280;6583;42.632;23.298;2023-01-28T11:37:24;71441.00;;;-146.40;79.19
13033;BME280;6583;42.632;23.298;2023-01-28T11:40:00;71451.13;;;-146.40;79.27
13033;BME280;6583;42.632;23.298;2023-01-28T11:42:27;71439.00;;;-146.40;79.81
13033;BME280;6583;42.632;23.298;2023-01-28T11:44:55;71461.25;;;-146.40;78.99
13033;BME280;6583;42.632;23.298;2023-01-28T11:47:33;71451.13;;;-146.40;79.59
13033;BME280;6583;42.632;23.298;2023-01-28T11:50:13;71443.03;;;-146.40;79.76
13033;BME280;6583;42.632;23.298;2023-01-28T11:52:52;71453.16;;;-146.40;78.64
13033;BME280;6583;42.632;23.298;2023-01-28T11:55:36;71432.91;;;-146.40;79.78
13033;BME280;6583;42.632;23.298;2023-01-28T11:58:15;71434.94;;;-146.40;79.87
13033;BME280;6583;42.632;23.298;2023-01-28T12:00:46;71445.06;;;-146.40;78.33
13033;BME280;6583;42.632;23.298;2023-01-28T12:03:27;71441.00;;;-146.40;79.11
13033;BME280;6583;42.632;23.298;2023-01-28T12:06:11;71428.88;;;-146.40;79.58
13033;BME280;6583;42.632;23.298;2023-01-28T12:08:47;71428.88;;;-146.40;79.38
13033;BME280;6583;42.632;23.298;2023-01-28T12:11:26;71445.06;;;-146.40;78.75
13033;BME280;6583;42.632;23.298;2023-01-28T12:14:12;71443.03;;;-146.40;77.74
13033;BME280;6583;42.632;23.298;2023-01-28T12:16:53;71451.13;;;-146.40;78.89
13033;BME280;6583;42.632;23.298;2023-01-28T12:19:37;71445.06;;;-146.40;79.52
13033;BME280;6583;42.632;23.298;2023-01-28T12:22:26;71432.91;;;-146.40;79.02
13033;BME280;6583;42.632;23.298;2023-01-28T12:25:06;71420.78;;;-146.40;79.56
13033;BME280;6583;42.632;23.298;2023-01-28T12:27:43;71420.78;;;-146.40;78.70
13033;BME280;6583;42.632;23.298;2023-01-28T12:30:23;71434.94;;;-146.40;77.82
13033;BME280;6583;42.632;23.298;2023-01-28T12:33:02;71432.91;;;-146.40;78.62
13033;BME280;6583;42.632;23.298;2023-01-28T12:35:48;71434.94;;;-146.40;77.62
13033;BME280;6583;42.632;23.298;2023-01-28T12:38:22;71424.81;;;-146.40;77.95
13033;BME280;6583;42.632;23.298;2023-01-28T12:40:58;71434.94;;;-146.40;77.54
13033;BME280;6583;42.632;23.298;2023-01-28T12:43:44;71424.81;;;-146.40;78.42
13033;BME280;6583;42.632;23.298;2023-01-28T12:46:24;71434.94;;;-146.40;78.26
13033;BME280;6583;42.632;23.298;2023-01-28T12:48:57;71436.97;;;-146.40;77.89
13033;BME280;6583;42.632;23.298;2023-01-28T12:51:29;71441.00;;;-146.40;78.18
13033;BME280;6583;42.632;23.298;2023-01-28T12:54:03;71426.84;;;-146.40;78.69
13033;BME280;6583;42.632;23.298;2023-01-28T12:56:36;71439.00;;;-146.40;78.11
13033;BME280;6583;42.632;23.298;2023-01-28T12:59:08;71461.25;;;-146.40;78.85
13033;BME280;6583;42.632;23.298;2023-01-28T13:01:40;71467.31;;;-146.40;79.93